sensor_id;sensor_type;location;lat;lon;timestamp;temperature;humidity
37868;DHT22;24011;48.880;9.190;2022-10-17T00:01:18;24.90;45.20
37868;DHT22;24011;48.880;9.190;2022-10-17T00:04:12;24.90;45.20
37868;DHT22;24011;48.880;9.190;2022-10-17T00:11:13;24.80;45.20
37868;DHT22;24011;48.880;9.190;2022-10-17T00:14:26;24.80;45.20
37868;DHT22;24011;48.880;9.190;2022-10-17T00:18:10;24.90;45.20
37868;DHT22;24011;48.880;9.190;2022-10-17T00:21:43;24.80;45.20
37868;DHT22;24011;48.880;9.190;2022-10-17T00:24:50;24.80;45.20
37868;DHT22;24011;48.880;9.190;2022-10-17T00:28:13;24.80;45.20
37868;DHT22;24011;48.880;9.190;2022-10-17T00:31:05;24.80;45.20
37868;DHT22;24011;48.880;9.190;2022-10-17T00:34:57;24.80;45.20
37868;DHT22;24011;48.880;9.190;2022-10-17T00:39:05;24.80;45.20
37868;DHT22;24011;48.880;9.190;2022-10-17T00:42:34;24.80;45.20
37868;DHT22;24011;48.880;9.190;2022-10-17T00:45:45;24.80;45.20
37868;DHT22;24011;48.880;9.190;2022-10-17T00:48:52;24.80;45.20
37868;DHT22;24011;48.880;9.190;2022-10-17T00:52:00;24.80;45.30
37868;DHT22;24011;48.880;9.190;2022-10-17T00:55:06;24.80;45.30
37868;DHT22;24011;48.880;9.190;2022-10-17T00:58:21;24.80;45.30
37868;DHT22;24011;48.880;9.190;2022-10-17T01:01:56;24.80;45.30
37868;DHT22;24011;48.880;9.190;2022-10-17T01:05:05;24.80;45.30
37868;DHT22;24011;48.880;9.190;2022-10-17T01:08:07;24.80;45.90
37868;DHT22;24011;48.880;9.190;2022-10-17T01:11:26;24.80;45.30
37868;DHT22;24011;48.880;9.190;2022-10-17T01:15:22;24.80;45.30
37868;DHT22;24011;48.880;9.190;2022-10-17T01:23:16;24.80;45.20
37868;DHT22;24011;48.880;9.190;2022-10-17T01:27:18;24.80;45.20
37868;DHT22;24011;48.880;9.190;2022-10-17T01:31:12;24.80;45.30
37868;DHT22;24011;48.880;9.190;2022-10-17T01:35:22;24.80;45.30
37868;DHT22;24011;48.880;9.190;2022-10-17T01:39:14;24.80;45.30
37868;DHT22;24011;48.880;9.190;2022-10-17T01:43:13;24.80;45.20
37868;DHT22;24011;48.880;9.190;2022-10-17T01:51:36;24.70;45.30
37868;DHT22;24011;48.880;9.190;2022-10-17T01:56:21;24.80;45.30
37868;DHT22;24011;48.880;9.190;2022-10-17T02:04:45;24.70;45.20
37868;DHT22;24011;48.880;9.190;2022-10-17T02:08:42;24.70;45.20
37868;DHT22;24011;48.880;9.190;2022-10-17T02:12:41;24.50;45.60
37868;DHT22;24011;48.880;9.190;2022-10-17T02:16:47;24.40;46.00
37868;DHT22;24011;48.880;9.190;2022-10-17T02:20:19;24.40;46.20
37868;DHT22;24011;48.880;9.190;2022-10-17T02:27:38;24.30;46.40
37868;DHT22;24011;48.880;9.190;2022-10-17T02:31:18;24.30;46.30
37868;DHT22;24011;48.880;9.190;2022-10-17T02:34:41;24.20;46.40
37868;DHT22;24011;48.880;9.190;2022-10-17T02:38:14;24.10;46.50
37868;DHT22;24011;48.880;9.190;2022-10-17T02:41:39;24.30;46.40
37868;DHT22;24011;48.880;9.190;2022-10-17T02:53:24;24.30;46.30
37868;DHT22;24011;48.880;9.190;2022-10-17T02:57:09;24.20;47.20
37868;DHT22;24011;48.880;9.190;2022-10-17T04:27:24;24.00;46.50
37868;DHT22;24011;48.880;9.190;2022-10-17T04:29:55;24.00;46.60
37868;DHT22;24011;48.880;9.190;2022-10-17T04:32:28;23.90;46.70
37868;DHT22;24011;48.880;9.190;2022-10-17T04:35:09;23.80;47.00
37868;DHT22;24011;48.880;9.190;2022-10-17T04:41:21;23.90;46.90
37868;DHT22;24011;48.880;9.190;2022-10-17T04:48:02;24.00;46.80
37868;DHT22;24011;48.880;9.190;2022-10-17T04:51:05;24.00;46.70
37868;DHT22;24011;48.880;9.190;2022-10-17T05:33:01;24.30;46.60
37868;DHT22;24011;48.880;9.190;2022-10-17T05:35:42;24.30;46.60
37868;DHT22;24011;48.880;9.190;2022-10-17T05:51:15;24.40;46.60
37868;DHT22;24011;48.880;9.190;2022-10-17T05:55:16;24.40;46.50
37868;DHT22;24011;48.880;9.190;2022-10-17T05:59:29;24.40;46.40
37868;DHT22;24011;48.880;9.190;2022-10-17T06:24:37;24.60;46.10
37868;DHT22;24011;48.880;9.190;2022-10-17T07:15:50;24.80;45.70
37868;DHT22;24011;48.880;9.190;2022-10-17T07:19:18;24.80;45.80
37868;DHT22;24011;48.880;9.190;2022-10-17T07:22:21;24.80;45.80
37868;DHT22;24011;48.880;9.190;2022-10-17T07:51:14;25.10;45.30
37868;DHT22;24011;48.880;9.190;2022-10-17T07:55:01;25.00;45.50
37868;DHT22;24011;48.880;9.190;2022-10-17T08:19:36;24.60;46.60
37868;DHT22;24011;48.880;9.190;2022-10-17T08:23:24;24.50;46.80
37868;DHT22;24011;48.880;9.190;2022-10-17T08:26:53;24.40;47.20
37868;DHT22;24011;48.880;9.190;2022-10-17T08:47:08;24.50;47.60
37868;DHT22;24011;48.880;9.190;2022-10-17T08:50:11;24.50;47.30
37868;DHT22;24011;48.880;9.190;2022-10-17T09:42:18;24.70;46.60
37868;DHT22;24011;48.880;9.190;2022-10-17T09:45:02;24.60;46.90
37868;DHT22;24011;48.880;9.190;2022-10-17T09:47:48;24.70;47.10
37868;DHT22;24011;48.880;9.190;2022-10-17T09:50:45;24.70;47.20
37868;DHT22;24011;48.880;9.190;2022-10-17T09:53:49;24.70;47.10
37868;DHT22;24011;48.880;9.190;2022-10-17T10:15:04;24.90;47.30
37868;DHT22;24011;48.880;9.190;2022-10-17T10:27:10;24.90;47.40
37868;DHT22;24011;48.880;9.190;2022-10-17T10:34:54;24.90;47.60
37868;DHT22;24011;48.880;9.190;2022-10-17T10:55:13;25.00;48.10
37868;DHT22;24011;48.880;9.190;2022-10-17T10:58:48;25.00;48.20
37868;DHT22;24011;48.880;9.190;2022-10-17T11:02:09;25.00;48.20
37868;DHT22;24011;48.880;9.190;2022-10-17T11:05:42;25.00;48.30
37868;DHT22;24011;48.880;9.190;2022-10-17T11:08:43;25.10;48.20
37868;DHT22;24011;48.880;9.190;2022-10-17T12:29:33;25.10;47.40
37868;DHT22;24011;48.880;9.190;2022-10-17T12:32:39;25.10;47.40
37868;DHT22;24011;48.880;9.190;2022-10-17T12:35:44;25.10;47.40
37868;DHT22;24011;48.880;9.190;2022-10-17T12:38:33;25.20;47.50
37868;DHT22;24011;48.880;9.190;2022-10-17T12:41:57;25.10;47.40
37868;DHT22;24011;48.880;9.190;2022-10-17T12:45:58;25.10;47.40
37868;DHT22;24011;48.880;9.190;2022-10-17T12:56:00;25.20;47.60
37868;DHT22;24011;48.880;9.190;2022-10-17T12:59:27;25.20;47.70
37868;DHT22;24011;48.880;9.190;2022-10-17T13:02:24;25.30;47.80
37868;DHT22;24011;48.880;9.190;2022-10-17T13:05:31;25.30;47.80
37868;DHT22;24011;48.880;9.190;2022-10-17T15:04:18;25.00;46.60
37868;DHT22;24011;48.880;9.190;2022-10-17T15:08:14;25.00;46.50
37868;DHT22;24011;48.880;9.190;2022-10-17T15:11:10;24.90;46.60
37868;DHT22;24011;48.880;9.190;2022-10-17T15:18:32;24.90;46.70
37868;DHT22;24011;48.880;9.190;2022-10-17T15:48:23;25.00;46.80
37868;DHT22;24011;48.880;9.190;2022-10-17T15:52:02;25.10;46.40
37868;DHT22;24011;48.880;9.190;2022-10-17T15:56:17;25.10;46.60
37868;DHT22;24011;48.880;9.190;2022-10-17T16:00:17;25.10;46.60
37868;DHT22;24011;48.880;9.190;2022-10-17T16:12:14;24.90;46.90
37868;DHT22;24011;48.880;9.190;2022-10-17T16:15:27;24.80;47.20
37868;DHT22;24011;48.880;9.190;2022-10-17T16:19:07;24.80;47.40
37868;DHT22;24011;48.880;9.190;2022-10-17T16:22:30;24.70;47.60
37868;DHT22;24011;48.880;9.190;2022-10-17T16:25:29;24.60;47.80
37868;DHT22;24011;48.880;9.190;2022-10-17T16:28:24;24.60;47.90
37868;DHT22;24011;48.880;9.190;2022-10-17T16:31:26;24.70;47.80
37868;DHT22;24011;48.880;9.190;2022-10-17T16:34:23;24.60;48.00
37868;DHT22;24011;48.880;9.190;2022-10-17T16:37:33;24.50;48.10
37868;DHT22;24011;48.880;9.190;2022-10-17T16:40:30;24.70;47.90
37868;DHT22;24011;48.880;9.190;2022-10-17T16:43:48;24.80;47.60
37868;DHT22;24011;48.880;9.190;2022-10-17T16:46:42;24.90;47.50
37868;DHT22;24011;48.880;9.190;2022-10-17T16:49:48;25.00;47.20
37868;DHT22;24011;48.880;9.190;2022-10-17T16:52:47;25.10;47.10
37868;DHT22;24011;48.880;9.190;2022-10-17T16:56:00;25.10;47.00
37868;DHT22;24011;48.880;9.190;2022-10-17T16:59:04;25.20;47.00
37868;DHT22;24011;48.880;9.190;2022-10-17T17:01:53;25.20;47.00
37868;DHT22;24011;48.880;9.190;2022-10-17T17:04:41;25.20;47.00
37868;DHT22;24011;48.880;9.190;2022-10-17T17:07:43;25.30;47.00
37868;DHT22;24011;48.880;9.190;2022-10-17T17:10:57;25.20;47.00
37868;DHT22;24011;48.880;9.190;2022-10-17T17:14:07;25.20;47.10
37868;DHT22;24011;48.880;9.190;2022-10-17T17:17:00;25.00;47.60
37868;DHT22;24011;48.880;9.190;2022-10-17T17:20:22;24.90;47.80
37868;DHT22;24011;48.880;9.190;2022-10-17T17:23:33;24.90;47.90
37868;DHT22;24011;48.880;9.190;2022-10-17T17:26:31;24.80;48.10
37868;DHT22;24011;48.880;9.190;2022-10-17T17:29:41;24.80;48.30
37868;DHT22;24011;48.880;9.190;2022-10-17T17:33:05;24.80;48.30
37868;DHT22;24011;48.880;9.190;2022-10-17T17:36:13;24.80;48.40
37868;DHT22;24011;48.880;9.190;2022-10-17T17:39:35;24.70;48.40
37868;DHT22;24011;48.880;9.190;2022-10-17T17:42:41;24.80;48.20
37868;DHT22;24011;48.880;9.190;2022-10-17T17:46:06;24.80;48.20
37868;DHT22;24011;48.880;9.190;2022-10-17T17:49:12;24.80;48.00
37868;DHT22;24011;48.880;9.190;2022-10-17T17:52:27;24.90;47.80
37868;DHT22;24011;48.880;9.190;2022-10-17T17:55:30;25.00;47.70
37868;DHT22;24011;48.880;9.190;2022-10-17T17:58:51;24.90;47.90
37868;DHT22;24011;48.880;9.190;2022-10-17T18:01:56;24.90;47.80
37868;DHT22;24011;48.880;9.190;2022-10-17T18:04:45;24.90;47.90
37868;DHT22;24011;48.880;9.190;2022-10-17T18:07:42;25.00;47.70
37868;DHT22;24011;48.880;9.190;2022-10-17T18:10:51;25.00;47.60
37868;DHT22;24011;48.880;9.190;2022-10-17T18:13:51;25.00;47.40
37868;DHT22;24011;48.880;9.190;2022-10-17T18:17:07;25.00;47.40
37868;DHT22;24011;48.880;9.190;2022-10-17T18:20:01;25.00;47.40
37868;DHT22;24011;48.880;9.190;2022-10-17T18:23:31;25.10;47.40
37868;DHT22;24011;48.880;9.190;2022-10-17T18:32:48;25.10;47.30
37868;DHT22;24011;48.880;9.190;2022-10-17T18:36:08;25.10;47.30
37868;DHT22;24011;48.880;9.190;2022-10-17T18:39:36;25.10;47.30
37868;DHT22;24011;48.880;9.190;2022-10-17T18:49:19;25.10;47.20
37868;DHT22;24011;48.880;9.190;2022-10-17T18:52:48;25.10;47.20
37868;DHT22;24011;48.880;9.190;2022-10-17T18:56:19;25.10;47.20
37868;DHT22;24011;48.880;9.190;2022-10-17T18:59:48;25.10;47.20
37868;DHT22;24011;48.880;9.190;2022-10-17T19:03:13;25.20;47.20
37868;DHT22;24011;48.880;9.190;2022-10-17T19:07:01;25.10;47.10
37868;DHT22;24011;48.880;9.190;2022-10-17T19:10:37;25.20;47.20
37868;DHT22;24011;48.880;9.190;2022-10-17T19:14:07;25.10;47.10
